Ferry Katsuragi — JI3611 — position and weather

sailwx.info

Track history (hours):
 
Tides and Currents Weather Stations Pressure Air Temp Water Temp Dewpoint Dewpoint Depression Visibility Wind Speed Wind Dir Waves Ship Positions

Ferry Katsuragi

Last reported at 2016-May-02 10:33 UTC. Time now 2016-May-02 10:38 UTC.
Position N 34°12' E 135°04'.

Length 108 m; draft 4 m.

Type: Passenger vessel. MMSI: 431301245.

Date/timePositionNaut miles runAvg speedWind from/ knotsBaromVisibWave heightAir tempDewpointWater temp
2016-May-02 10:33N 34°12' E 135°04'4 4.1
2016-May-02 09:34N 34°13' E 135°09'11 2.6
2016-May-02 05:25N 34°10' E 134°56'1112.8
2016-May-02 04:33N 34°13' E 135°09'6 6.0
2016-May-02 03:33N 34°11' E 135°02'7 2.3
2016-May-02 00:20N 34°08' E 134°54'1316.6
2016-May-01 23:33N 34°13' E 135°08'2 1.5
2016-May-01 22:33N 34°13' E 135°06'18 5.3
2016-May-01 19:09N 34°06' E 134°46'813.7
2016-May-01 18:31N 34°09' E 134°55'1111.9
2016-May-01 17:34N 34°13' E 135°09'0 0.0
2016-May-01 16:34N 34°13' E 135°09'0 0.0
2016-May-01 15:34N 34°13' E 135°09'6 6.3
2016-May-01 14:33N 34°12' E 135°01'11 3.5
2016-May-01 11:25N 34°07' E 134°49'1314.9
2016-May-01 10:33N 34°12' E 135°04'4 4.1
2016-May-01 09:33N 34°13' E 135°09'25 7.5
2016-May-01 06:15N 34°04' E 134°40'2514.7
2016-May-01 04:34N 34°13' E 135°09'6 6.4
2016-May-01 03:32N 34°12' E 135°01'10 3.4
2016-May-01 00:30N 34°07' E 134°50'1617.1
2016-Apr-30 23:33N 34°13' E 135°08'1 1.4
2016-Apr-30 22:33N 34°13' E 135°06'20 6.2
2016-Apr-30 19:17N 34°05' E 134°43'1114.1
2016-Apr-30 18:29N 34°10' E 134°56'1112.0
2016-Apr-30 17:34N 34°13' E 135°09'0 0.0
2016-Apr-30 16:34N 34°13' E 135°09'0 0.0
2016-Apr-30 15:33N 34°13' E 135°09'7 6.9
2016-Apr-30 14:33N 34°12' E 135°00'12 4.1
2016-Apr-30 11:33N 34°07' E 134°47'1515.2
2016-Apr-30 10:33N 34°12' E 135°04'4 4.0
2016-Apr-30 09:33N 34°13' E 135°09'20 5.6
2016-Apr-30 06:05N 34°06' E 134°46'914.9
2016-Apr-30 05:30N 34°10' E 134°56'1111.5
2016-Apr-30 04:34N 34°13' E 135°09'9 2.0
2016-Apr-30 00:06N 34°10' E 134°58'916.1
2016-Apr-29 23:33N 34°13' E 135°08'1 0.9
2016-Apr-29 22:34N 34°13' E 135°07'19 5.7
2016-Apr-29 19:10N 34°05' E 134°45'1014.2
2016-Apr-29 18:27N 34°09' E 134°57'1111.7
2016-Apr-29 17:34N 34°13' E 135°09'0 0.0
2016-Apr-29 16:34N 34°13' E 135°09'0 0.0
2016-Apr-29 15:33N 34°13' E 135°09'7 6.8
2016-Apr-29 14:33N 34°11' E 135°01'11 3.4
2016-Apr-29 11:30N 34°07' E 134°49'1314.1
2016-Apr-29 10:34N 34°12' E 135°04'4 4.2
2016-Apr-29 09:33N 34°13' E 135°09'10 2.5
2016-Apr-29 05:23N 34°09' E 134°57'1012.5
2016-Apr-29 04:33N 34°13' E 135°09'6 5.9
2016-Apr-29 03:33N 34°11' E 135°02'2 0.6
2016-Apr-29 00:05N 34°11' E 134°59'815.3
2016-Apr-28 23:33N 34°13' E 135°09'1 0.5
2016-Apr-28 22:33N 34°13' E 135°08'20 5.9
2016-Apr-28 19:09N 34°06' E 134°45'1014.4
2016-Apr-28 18:28N 34°09' E 134°56'1112.1
2016-Apr-28 17:33N 34°13' E 135°09'0 0.0
2016-Apr-28 16:33N 34°13' E 135°09'0 0.0
2016-Apr-28 15:33N 34°13' E 135°09'7 7.1
2016-Apr-28 14:33N 34°11' E 135°00'11 3.5
2016-Apr-28 11:29N 34°07' E 134°49'1414.7
2016-Apr-28 10:33N 34°12' E 135°04'4 3.9
2016-Apr-28 09:33N 34°13' E 135°09'21 6.1
2016-Apr-28 06:11N 34°06' E 134°45'1114.2
2016-Apr-28 05:26N 34°10' E 134°57'1011.4
2016-Apr-28 04:33N 34°13' E 135°09'7 7.0
2016-Apr-28 03:33N 34°11' E 135°00'3 0.8
2016-Apr-28 00:09N 34°09' E 134°58'915.4
2016-Apr-27 23:34N 34°13' E 135°08'2 2.0
2016-Apr-27 22:33N 34°13' E 135°05'17 5.0
2016-Apr-27 19:09N 34°07' E 134°46'912.7
2016-Apr-27 18:27N 34°09' E 134°57'1112.0
2016-Apr-27 17:33N 34°13' E 135°09'0 0.0
2016-Apr-27 16:33N 34°13' E 135°09'0 0.0
2016-Apr-27 15:33N 34°13' E 135°09'7 7.2
2016-Apr-27 14:33N 34°11' E 135°00'10 3.2
2016-Apr-27 11:27N 34°07' E 134°49'1314.8
2016-Apr-27 10:33N 34°12' E 135°04'4 3.7
2016-Apr-27 09:33N 34°13' E 135°08'20 5.8
2016-Apr-27 06:08N 34°06' E 134°46'813.8
2016-Apr-27 05:32N 34°09' E 134°55'1211.8
2016-Apr-27 04:33N 34°13' E 135°09'7 6.6
2016-Apr-27 03:33N 34°11' E 135°01'5 1.5
2016-Apr-27 00:18N 34°10' E 134°55'1115.0
2016-Apr-26 23:33N 34°13' E 135°08'2 1.8
2016-Apr-26 22:33N 34°13' E 135°06'18 5.3
2016-Apr-26 19:06N 34°06' E 134°45'1014.6
2016-Apr-26 18:25N 34°10' E 134°56'1012.2
2016-Apr-26 17:33N 34°13' E 135°09'0 0.0
2016-Apr-26 16:33N 34°13' E 135°09'0 0.0
2016-Apr-26 15:33N 34°13' E 135°09'7 6.7
2016-Apr-26 14:33N 34°11' E 135°01'10 3.1
2016-Apr-26 11:25N 34°08' E 134°50'1315.1
2016-Apr-26 10:33N 34°12' E 135°04'3 3.5
2016-Apr-26 09:34N 34°13' E 135°09'8 2.0
2016-Apr-26 05:22N 34°10' E 134°59'810.6
2016-Apr-26 04:33N 34°13' E 135°09'7 7.1
2016-Apr-26 03:31N 34°11' E 135°00'4 1.2
2016-Apr-26 00:17N 34°09' E 134°56'1114.8
2016-Apr-25 23:33N 34°13' E 135°08'2 2.0
2016-Apr-25 22:33N 34°13' E 135°05'9 2.3
2016-Apr-25 18:30N 34°09' E 134°55'1212.5
2016-Apr-25 17:33N 34°13' E 135°09'0 0.0
2016-Apr-25 16:33N 34°13' E 135°09'0 0.0
2016-Apr-25 15:33N 34°13' E 135°09'7 6.8
2016-Apr-25 14:33N 34°10' E 135°01'12 4.0
2016-Apr-25 11:34N 34°07' E 134°47'1514.8
2016-Apr-25 10:33N 34°12' E 135°04'4 4.1
2016-Apr-25 09:33N 34°13' E 135°09'21 6.3
2016-Apr-25 06:12N 34°05' E 134°45'1014.1
2016-Apr-25 05:30N 34°09' E 134°56'1111.9
2016-Apr-25 04:33N 34°13' E 135°09'7 6.9
2016-Apr-25 03:33N 34°09' E 135°02'7 2.2
2016-Apr-25 00:27N 34°09' E 134°54'1314.4
2016-Apr-24 23:34N 34°13' E 135°09'2 2.2
2016-Apr-24 22:34N 34°13' E 135°06'18 5.1
2016-Apr-24 19:04N 34°06' E 134°46'814.3
2016-Apr-24 18:32N 34°09' E 134°55'1212.5
2016-Apr-24 17:33N 34°13' E 135°09'0 0.0
2016-Apr-24 16:33N 34°13' E 135°09'0 0.0
2016-Apr-24 15:33N 34°13' E 135°09'6 6.1
2016-Apr-24 14:33N 34°11' E 135°02'11 3.7
2016-Apr-24 11:28N 34°07' E 134°49'1314.9
2016-Apr-24 10:34N 34°12' E 135°04'4 4.0
2016-Apr-24 09:34N 34°13' E 135°09'20 6.0
2016-Apr-24 06:09N 34°06' E 134°45'914.5
2016-Apr-24 05:31N 34°09' E 134°55'1111.9
2016-Apr-24 04:33N 34°13' E 135°09'7 7.1
2016-Apr-24 03:33N 34°08' E 135°02'19 8.0
2016-Apr-24 01:11N 34°04' E 134°40'1515.4
2016-Apr-24 00:13N 34°10' E 134°57'1015.1
2016-Apr-23 23:33N 34°13' E 135°08'2 2.2
2016-Apr-23 22:33N 34°13' E 135°06'18 5.3
2016-Apr-23 19:08N 34°06' E 134°45'1014.1
2016-Apr-23 18:24N 34°10' E 134°57'1012.0
2016-Apr-23 17:33N 34°13' E 135°09'0 0.0
2016-Apr-23 16:33N 34°13' E 135°09'0 0.0
2016-Apr-23 15:33N 34°13' E 135°09'7 6.6
2016-Apr-23 14:33N 34°11' E 135°01'11 3.7
2016-Apr-23 11:30N 34°07' E 134°48'1414.5
2016-Apr-23 10:34N 34°12' E 135°04'4 4.1
2016-Apr-23 09:33N 34°13' E 135°09'20 6.0
2016-Apr-23 06:10N 34°06' E 134°45'914.4
2016-Apr-23 05:33N 34°09' E 134°55'1211.8
2016-Apr-23 04:33N 34°13' E 135°09'7 7.0
2016-Apr-23 03:32N 34°10' E 135°01'4 1.3
2016-Apr-23 00:16N 34°09' E 134°56'1115.2
2016-Apr-22 23:33N 34°13' E 135°08'2 1.8
2016-Apr-22 22:33N 34°13' E 135°06'1814.4
2016-Apr-22 21:19N 34°06' E 134°46'1 0.4
2016-Apr-22 19:15N 34°05' E 134°45'1013.8
2016-Apr-22 18:30N 34°09' E 134°56'1111.4
2016-Apr-22 17:33N 34°13' E 135°09'0 0.0
2016-Apr-22 16:34N 34°13' E 135°09'0 0.0
2016-Apr-22 15:33N 34°13' E 135°09'7 7.4
2016-Apr-22 14:33N 34°11' E 135°00'11 3.5
2016-Apr-22 11:30N 34°06' E 134°49'1414.5
2016-Apr-22 10:33N 34°12' E 135°04'  
Track history (hours):
 
Tides and Currents Weather Stations Pressure Air Temp Water Temp Dewpoint Dewpoint Depression Visibility Wind Speed Wind Dir Waves Ship Positions

Ferry Katsuragi

Last reported at 2016-May-02 10:33 UTC. Time now 2016-May-02 10:38 UTC.
Position N 34°12' E 135°04'.

Length 108 m; draft 4 m.

Type: Passenger vessel. MMSI: 431301245.

Date/timePositionNaut miles runAvg speedWind from/ knotsBaromVisibWave heightAir tempDewpointWater temp
2016-May-02 10:33N 34°12' E 135°04'4 4.1
2016-May-02 09:34N 34°13' E 135°09'11 2.6
2016-May-02 05:25N 34°10' E 134°56'1112.8
2016-May-02 04:33N 34°13' E 135°09'6 6.0
2016-May-02 03:33N 34°11' E 135°02'7 2.3
2016-May-02 00:20N 34°08' E 134°54'1316.6
2016-May-01 23:33N 34°13' E 135°08'2 1.5
2016-May-01 22:33N 34°13' E 135°06'18 5.3
2016-May-01 19:09N 34°06' E 134°46'813.7
2016-May-01 18:31N 34°09' E 134°55'1111.9
2016-May-01 17:34N 34°13' E 135°09'0 0.0
2016-May-01 16:34N 34°13' E 135°09'0 0.0
2016-May-01 15:34N 34°13' E 135°09'6 6.3
2016-May-01 14:33N 34°12' E 135°01'11 3.5
2016-May-01 11:25N 34°07' E 134°49'1314.9
2016-May-01 10:33N 34°12' E 135°04'4 4.1
2016-May-01 09:33N 34°13' E 135°09'25 7.5
2016-May-01 06:15N 34°04' E 134°40'2514.7
2016-May-01 04:34N 34°13' E 135°09'6 6.4
2016-May-01 03:32N 34°12' E 135°01'10 3.4
2016-May-01 00:30N 34°07' E 134°50'1617.1
2016-Apr-30 23:33N 34°13' E 135°08'1 1.4
2016-Apr-30 22:33N 34°13' E 135°06'20 6.2
2016-Apr-30 19:17N 34°05' E 134°43'1114.1
2016-Apr-30 18:29N 34°10' E 134°56'1112.0
2016-Apr-30 17:34N 34°13' E 135°09'0 0.0
2016-Apr-30 16:34N 34°13' E 135°09'0 0.0
2016-Apr-30 15:33N 34°13' E 135°09'7 6.9
2016-Apr-30 14:33N 34°12' E 135°00'12 4.1
2016-Apr-30 11:33N 34°07' E 134°47'1515.2
2016-Apr-30 10:33N 34°12' E 135°04'4 4.0
2016-Apr-30 09:33N 34°13' E 135°09'20 5.6
2016-Apr-30 06:05N 34°06' E 134°46'914.9
2016-Apr-30 05:30N 34°10' E 134°56'1111.5
2016-Apr-30 04:34N 34°13' E 135°09'9 2.0
2016-Apr-30 00:06N 34°10' E 134°58'916.1
2016-Apr-29 23:33N 34°13' E 135°08'1 0.9
2016-Apr-29 22:34N 34°13' E 135°07'19 5.7
2016-Apr-29 19:10N 34°05' E 134°45'1014.2
2016-Apr-29 18:27N 34°09' E 134°57'1111.7
2016-Apr-29 17:34N 34°13' E 135°09'0 0.0
2016-Apr-29 16:34N 34°13' E 135°09'0 0.0
2016-Apr-29 15:33N 34°13' E 135°09'7 6.8
2016-Apr-29 14:33N 34°11' E 135°01'11 3.4
2016-Apr-29 11:30N 34°07' E 134°49'1314.1
2016-Apr-29 10:34N 34°12' E 135°04'4 4.2
2016-Apr-29 09:33N 34°13' E 135°09'10 2.5
2016-Apr-29 05:23N 34°09' E 134°57'1012.5
2016-Apr-29 04:33N 34°13' E 135°09'6 5.9
2016-Apr-29 03:33N 34°11' E 135°02'2 0.6
2016-Apr-29 00:05N 34°11' E 134°59'815.3
2016-Apr-28 23:33N 34°13' E 135°09'1 0.5
2016-Apr-28 22:33N 34°13' E 135°08'20 5.9
2016-Apr-28 19:09N 34°06' E 134°45'1014.4
2016-Apr-28 18:28N 34°09' E 134°56'1112.1
2016-Apr-28 17:33N 34°13' E 135°09'0 0.0
2016-Apr-28 16:33N 34°13' E 135°09'0 0.0
2016-Apr-28 15:33N 34°13' E 135°09'7 7.1
2016-Apr-28 14:33N 34°11' E 135°00'11 3.5
2016-Apr-28 11:29N 34°07' E 134°49'1414.7
2016-Apr-28 10:33N 34°12' E 135°04'4 3.9
2016-Apr-28 09:33N 34°13' E 135°09'21 6.1
2016-Apr-28 06:11N 34°06' E 134°45'1114.2
2016-Apr-28 05:26N 34°10' E 134°57'1011.4
2016-Apr-28 04:33N 34°13' E 135°09'7 7.0
2016-Apr-28 03:33N 34°11' E 135°00'3 0.8
2016-Apr-28 00:09N 34°09' E 134°58'915.4
2016-Apr-27 23:34N 34°13' E 135°08'2 2.0
2016-Apr-27 22:33N 34°13' E 135°05'17 5.0
2016-Apr-27 19:09N 34°07' E 134°46'912.7
2016-Apr-27 18:27N 34°09' E 134°57'1112.0
2016-Apr-27 17:33N 34°13' E 135°09'0 0.0
2016-Apr-27 16:33N 34°13' E 135°09'0 0.0
2016-Apr-27 15:33N 34°13' E 135°09'7 7.2
2016-Apr-27 14:33N 34°11' E 135°00'10 3.2
2016-Apr-27 11:27N 34°07' E 134°49'1314.8
2016-Apr-27 10:33N 34°12' E 135°04'4 3.7
2016-Apr-27 09:33N 34°13' E 135°08'20 5.8
2016-Apr-27 06:08N 34°06' E 134°46'813.8
2016-Apr-27 05:32N 34°09' E 134°55'1211.8
2016-Apr-27 04:33N 34°13' E 135°09'7 6.6
2016-Apr-27 03:33N 34°11' E 135°01'5 1.5
2016-Apr-27 00:18N 34°10' E 134°55'1115.0
2016-Apr-26 23:33N 34°13' E 135°08'2 1.8
2016-Apr-26 22:33N 34°13' E 135°06'18 5.3
2016-Apr-26 19:06N 34°06' E 134°45'1014.6
2016-Apr-26 18:25N 34°10' E 134°56'1012.2
2016-Apr-26 17:33N 34°13' E 135°09'0 0.0
2016-Apr-26 16:33N 34°13' E 135°09'0 0.0
2016-Apr-26 15:33N 34°13' E 135°09'7 6.7
2016-Apr-26 14:33N 34°11' E 135°01'10 3.1
2016-Apr-26 11:25N 34°08' E 134°50'1315.1
2016-Apr-26 10:33N 34°12' E 135°04'3 3.5
2016-Apr-26 09:34N 34°13' E 135°09'8 2.0
2016-Apr-26 05:22N 34°10' E 134°59'810.6
2016-Apr-26 04:33N 34°13' E 135°09'7 7.1
2016-Apr-26 03:31N 34°11' E 135°00'4 1.2
2016-Apr-26 00:17N 34°09' E 134°56'1114.8
2016-Apr-25 23:33N 34°13' E 135°08'2 2.0
2016-Apr-25 22:33N 34°13' E 135°05'9 2.3
2016-Apr-25 18:30N 34°09' E 134°55'1212.5
2016-Apr-25 17:33N 34°13' E 135°09'0 0.0
2016-Apr-25 16:33N 34°13' E 135°09'0 0.0
2016-Apr-25 15:33N 34°13' E 135°09'7 6.8
2016-Apr-25 14:33N 34°10' E 135°01'12 4.0
2016-Apr-25 11:34N 34°07' E 134°47'1514.8
2016-Apr-25 10:33N 34°12' E 135°04'4 4.1
2016-Apr-25 09:33N 34°13' E 135°09'21 6.3
2016-Apr-25 06:12N 34°05' E 134°45'1014.1
2016-Apr-25 05:30N 34°09' E 134°56'1111.9
2016-Apr-25 04:33N 34°13' E 135°09'7 6.9
2016-Apr-25 03:33N 34°09' E 135°02'7 2.2
2016-Apr-25 00:27N 34°09' E 134°54'1314.4
2016-Apr-24 23:34N 34°13' E 135°09'2 2.2
2016-Apr-24 22:34N 34°13' E 135°06'18 5.1
2016-Apr-24 19:04N 34°06' E 134°46'814.3
2016-Apr-24 18:32N 34°09' E 134°55'1212.5
2016-Apr-24 17:33N 34°13' E 135°09'0 0.0
2016-Apr-24 16:33N 34°13' E 135°09'0 0.0
2016-Apr-24 15:33N 34°13' E 135°09'6 6.1
2016-Apr-24 14:33N 34°11' E 135°02'11 3.7
2016-Apr-24 11:28N 34°07' E 134°49'1314.9
2016-Apr-24 10:34N 34°12' E 135°04'4 4.0
2016-Apr-24 09:34N 34°13' E 135°09'20 6.0
2016-Apr-24 06:09N 34°06' E 134°45'914.5
2016-Apr-24 05:31N 34°09' E 134°55'1111.9
2016-Apr-24 04:33N 34°13' E 135°09'7 7.1
2016-Apr-24 03:33N 34°08' E 135°02'19 8.0
2016-Apr-24 01:11N 34°04' E 134°40'1515.4
2016-Apr-24 00:13N 34°10' E 134°57'1015.1
2016-Apr-23 23:33N 34°13' E 135°08'2 2.2
2016-Apr-23 22:33N 34°13' E 135°06'18 5.3
2016-Apr-23 19:08N 34°06' E 134°45'1014.1
2016-Apr-23 18:24N 34°10' E 134°57'1012.0
2016-Apr-23 17:33N 34°13' E 135°09'0 0.0
2016-Apr-23 16:33N 34°13' E 135°09'0 0.0
2016-Apr-23 15:33N 34°13' E 135°09'7 6.6
2016-Apr-23 14:33N 34°11' E 135°01'11 3.7
2016-Apr-23 11:30N 34°07' E 134°48'1414.5
2016-Apr-23 10:34N 34°12' E 135°04'4 4.1
2016-Apr-23 09:33N 34°13' E 135°09'20 6.0
2016-Apr-23 06:10N 34°06' E 134°45'914.4
2016-Apr-23 05:33N 34°09' E 134°55'1211.8
2016-Apr-23 04:33N 34°13' E 135°09'7 7.0
2016-Apr-23 03:32N 34°10' E 135°01'4 1.3
2016-Apr-23 00:16N 34°09' E 134°56'1115.2
2016-Apr-22 23:33N 34°13' E 135°08'2 1.8
2016-Apr-22 22:33N 34°13' E 135°06'1814.4
2016-Apr-22 21:19N 34°06' E 134°46'1 0.4
2016-Apr-22 19:15N 34°05' E 134°45'1013.8
2016-Apr-22 18:30N 34°09' E 134°56'1111.4
2016-Apr-22 17:33N 34°13' E 135°09'0 0.0
2016-Apr-22 16:34N 34°13' E 135°09'0 0.0
2016-Apr-22 15:33N 34°13' E 135°09'7 7.4
2016-Apr-22 14:33N 34°11' E 135°00'11 3.5
2016-Apr-22 11:30N 34°06' E 134°49'1414.5
2016-Apr-22 10:33N 34°12' E 135°04'  

Dump ship's entire track history